sensor_id;sensor_type;location;lat;lon;timestamp;temperature;humidity
47813;DHT22;34221;45.296;9.516;2023-07-08T00:00:19;24.50;80.40
47813;DHT22;34221;45.296;9.516;2023-07-08T00:00:38;24.60;80.80
47813;DHT22;34221;45.296;9.516;2023-07-08T00:00:54;24.40;80.70
47813;DHT22;34221;45.296;9.516;2023-07-08T00:01:12;24.40;80.70
47813;DHT22;34221;45.296;9.516;2023-07-08T00:01:27;24.60;80.60
47813;DHT22;34221;45.296;9.516;2023-07-08T00:01:42;24.60;80.50
47813;DHT22;34221;45.296;9.516;2023-07-08T00:01:57;24.40;80.50
47813;DHT22;34221;45.296;9.516;2023-07-08T00:02:12;24.60;80.60
47813;DHT22;34221;45.296;9.516;2023-07-08T00:02:27;24.50;80.80
47813;DHT22;34221;45.296;9.516;2023-07-08T00:02:44;24.40;80.70
47813;DHT22;34221;45.296;9.516;2023-07-08T00:02:59;24.60;81.00
47813;DHT22;34221;45.296;9.516;2023-07-08T00:03:14;24.60;80.90
47813;DHT22;34221;45.296;9.516;2023-07-08T00:03:29;24.40;80.60
47813;DHT22;34221;45.296;9.516;2023-07-08T00:03:44;24.50;80.70
47813;DHT22;34221;45.296;9.516;2023-07-08T00:03:59;24.50;80.80
47813;DHT22;34221;45.296;9.516;2023-07-08T00:04:14;24.40;80.70
47813;DHT22;34221;45.296;9.516;2023-07-08T00:04:28;24.50;80.80
47813;DHT22;34221;45.296;9.516;2023-07-08T00:04:43;24.50;80.70
47813;DHT22;34221;45.296;9.516;2023-07-08T00:04:58;24.50;80.90
47813;DHT22;34221;45.296;9.516;2023-07-08T00:05:14;24.50;80.80
47813;DHT22;34221;45.296;9.516;2023-07-08T00:05:29;24.40;80.60
47813;DHT22;34221;45.296;9.516;2023-07-08T00:05:46;24.40;80.60
47813;DHT22;34221;45.296;9.516;2023-07-08T00:06:01;24.50;80.90
47813;DHT22;34221;45.296;9.516;2023-07-08T00:06:18;24.40;80.90
47813;DHT22;34221;45.296;9.516;2023-07-08T00:06:35;24.50;81.10
47813;DHT22;34221;45.296;9.516;2023-07-08T00:06:50;24.50;80.60
47813;DHT22;34221;45.296;9.516;2023-07-08T00:07:08;24.40;80.70
47813;DHT22;34221;45.296;9.516;2023-07-08T00:07:25;24.40;80.80
47813;DHT22;34221;45.296;9.516;2023-07-08T00:07:40;24.30;80.60
47813;DHT22;34221;45.296;9.516;2023-07-08T00:07:55;24.40;80.50
47813;DHT22;34221;45.296;9.516;2023-07-08T00:08:20;24.40;80.50
47813;DHT22;34221;45.296;9.516;2023-07-08T00:08:35;24.40;80.90
47813;DHT22;34221;45.296;9.516;2023-07-08T00:08:50;24.50;81.20
47813;DHT22;34221;45.296;9.516;2023-07-08T00:09:10;24.40;80.90
47813;DHT22;34221;45.296;9.516;2023-07-08T00:09:26;24.30;80.50
47813;DHT22;34221;45.296;9.516;2023-07-08T00:09:41;24.30;80.90
47813;DHT22;34221;45.296;9.516;2023-07-08T00:09:55;24.30;81.00
47813;DHT22;34221;45.296;9.516;2023-07-08T00:10:17;24.50;80.80
47813;DHT22;34221;45.296;9.516;2023-07-08T00:10:32;24.50;80.90
47813;DHT22;34221;45.296;9.516;2023-07-08T00:10:47;24.50;80.90
47813;DHT22;34221;45.296;9.516;2023-07-08T00:11:11;24.40;80.90
47813;DHT22;34221;45.296;9.516;2023-07-08T00:11:26;24.50;80.80
47813;DHT22;34221;45.296;9.516;2023-07-08T00:11:42;24.50;80.80
47813;DHT22;34221;45.296;9.516;2023-07-08T00:11:57;24.40;81.00
47813;DHT22;34221;45.296;9.516;2023-07-08T00:12:12;24.30;81.10
47813;DHT22;34221;45.296;9.516;2023-07-08T00:12:26;24.50;81.40
47813;DHT22;34221;45.296;9.516;2023-07-08T00:12:43;24.50;81.00
47813;DHT22;34221;45.296;9.516;2023-07-08T00:12:58;24.50;81.10
47813;DHT22;34221;45.296;9.516;2023-07-08T00:13:13;24.40;81.20
47813;DHT22;34221;45.296;9.516;2023-07-08T00:13:28;24.50;81.30
47813;DHT22;34221;45.296;9.516;2023-07-08T00:13:43;24.40;81.20
47813;DHT22;34221;45.296;9.516;2023-07-08T00:13:58;24.50;81.30
47813;DHT22;34221;45.296;9.516;2023-07-08T00:14:12;24.40;81.20
47813;DHT22;34221;45.296;9.516;2023-07-08T00:14:27;24.40;81.40
47813;DHT22;34221;45.296;9.516;2023-07-08T00:14:42;24.30;81.10
47813;DHT22;34221;45.296;9.516;2023-07-08T00:14:56;24.40;81.40
47813;DHT22;34221;45.296;9.516;2023-07-08T00:15:12;24.50;81.50
47813;DHT22;34221;45.296;9.516;2023-07-08T00:15:29;24.30;81.10
47813;DHT22;34221;45.296;9.516;2023-07-08T00:15:44;24.50;81.30
47813;DHT22;34221;45.296;9.516;2023-07-08T00:15:59;24.30;81.40
47813;DHT22;34221;45.296;9.516;2023-07-08T00:16:16;24.30;81.60
47813;DHT22;34221;45.296;9.516;2023-07-08T00:16:31;24.40;81.50
47813;DHT22;34221;45.296;9.516;2023-07-08T00:16:46;24.40;81.50
47813;DHT22;34221;45.296;9.516;2023-07-08T00:17:00;24.30;81.30
47813;DHT22;34221;45.296;9.516;2023-07-08T00:17:49;24.30;81.30
47813;DHT22;34221;45.296;9.516;2023-07-08T00:18:15;24.40;81.40
47813;DHT22;34221;45.296;9.516;2023-07-08T00:18:30;24.40;81.50
47813;DHT22;34221;45.296;9.516;2023-07-08T00:18:46;24.50;81.50
47813;DHT22;34221;45.296;9.516;2023-07-08T00:19:00;24.30;81.50
47813;DHT22;34221;45.296;9.516;2023-07-08T00:19:16;24.30;81.50
47813;DHT22;34221;45.296;9.516;2023-07-08T00:19:33;24.30;81.30
47813;DHT22;34221;45.296;9.516;2023-07-08T00:19:48;24.30;81.30
47813;DHT22;34221;45.296;9.516;2023-07-08T00:20:21;24.40;81.30
47813;DHT22;34221;45.296;9.516;2023-07-08T00:20:41;24.50;81.30
47813;DHT22;34221;45.296;9.516;2023-07-08T00:20:57;24.50;81.20
47813;DHT22;34221;45.296;9.516;2023-07-08T00:21:16;24.40;81.90
47813;DHT22;34221;45.296;9.516;2023-07-08T00:21:31;24.30;81.10
47813;DHT22;34221;45.296;9.516;2023-07-08T00:21:46;24.50;81.00
47813;DHT22;34221;45.296;9.516;2023-07-08T00:22:00;24.40;80.90
47813;DHT22;34221;45.296;9.516;2023-07-08T00:22:15;24.30;81.10
47813;DHT22;34221;45.296;9.516;2023-07-08T00:22:30;24.40;80.90
47813;DHT22;34221;45.296;9.516;2023-07-08T00:22:45;24.30;81.00
47813;DHT22;34221;45.296;9.516;2023-07-08T00:23:05;24.40;80.80
47813;DHT22;34221;45.296;9.516;2023-07-08T00:23:19;24.50;80.90
47813;DHT22;34221;45.296;9.516;2023-07-08T00:23:36;24.40;80.60
47813;DHT22;34221;45.296;9.516;2023-07-08T00:23:51;24.50;80.60
47813;DHT22;34221;45.296;9.516;2023-07-08T00:24:06;24.50;80.70
47813;DHT22;34221;45.296;9.516;2023-07-08T00:24:20;24.30;80.60
47813;DHT22;34221;45.296;9.516;2023-07-08T00:24:35;24.50;80.60
47813;DHT22;34221;45.296;9.516;2023-07-08T00:24:50;24.30;80.60
47813;DHT22;34221;45.296;9.516;2023-07-08T00:25:05;24.30;80.50
47813;DHT22;34221;45.296;9.516;2023-07-08T00:25:20;24.50;80.80
47813;DHT22;34221;45.296;9.516;2023-07-08T00:25:35;24.40;80.90
47813;DHT22;34221;45.296;9.516;2023-07-08T00:25:50;24.40;80.70
47813;DHT22;34221;45.296;9.516;2023-07-08T00:26:29;24.50;80.60
47813;DHT22;34221;45.296;9.516;2023-07-08T00:26:45;24.50;80.60
47813;DHT22;34221;45.296;9.516;2023-07-08T00:27:00;24.50;80.70
47813;DHT22;34221;45.296;9.516;2023-07-08T00:27:15;24.50;80.70
47813;DHT22;34221;45.296;9.516;2023-07-08T00:27:30;24.50;80.80
47813;DHT22;34221;45.296;9.516;2023-07-08T00:27:47;24.50;80.60
47813;DHT22;34221;45.296;9.516;2023-07-08T00:28:04;24.50;80.60
47813;DHT22;34221;45.296;9.516;2023-07-08T00:28:20;24.50;80.80
47813;DHT22;34221;45.296;9.516;2023-07-08T00:28:36;24.50;80.70
47813;DHT22;34221;45.296;9.516;2023-07-08T00:28:51;24.50;80.70
47813;DHT22;34221;45.296;9.516;2023-07-08T00:29:09;24.50;80.70
47813;DHT22;34221;45.296;9.516;2023-07-08T00:29:27;24.50;80.80
47813;DHT22;34221;45.296;9.516;2023-07-08T00:29:42;24.50;81.00
47813;DHT22;34221;45.296;9.516;2023-07-08T00:29:57;24.50;80.70
47813;DHT22;34221;45.296;9.516;2023-07-08T00:30:22;24.50;80.40
47813;DHT22;34221;45.296;9.516;2023-07-08T00:30:37;24.50;79.50
47813;DHT22;34221;45.296;9.516;2023-07-08T00:30:52;24.50;80.70
47813;DHT22;34221;45.296;9.516;2023-07-08T00:31:10;24.40;80.60
47813;DHT22;34221;45.296;9.516;2023-07-08T00:31:25;24.50;80.70
47813;DHT22;34221;45.296;9.516;2023-07-08T00:31:40;24.50;80.70
47813;DHT22;34221;45.296;9.516;2023-07-08T00:31:55;24.50;80.40
47813;DHT22;34221;45.296;9.516;2023-07-08T00:32:11;24.50;80.50
47813;DHT22;34221;45.296;9.516;2023-07-08T00:32:27;24.50;80.40
47813;DHT22;34221;45.296;9.516;2023-07-08T00:32:41;24.50;80.80
47813;DHT22;34221;45.296;9.516;2023-07-08T00:32:57;24.40;80.70
47813;DHT22;34221;45.296;9.516;2023-07-08T00:33:12;24.50;80.70
47813;DHT22;34221;45.296;9.516;2023-07-08T00:33:27;24.50;80.70
47813;DHT22;34221;45.296;9.516;2023-07-08T00:33:42;24.50;80.60
47813;DHT22;34221;45.296;9.516;2023-07-08T00:33:56;24.50;80.80
47813;DHT22;34221;45.296;9.516;2023-07-08T00:34:11;24.50;80.30
47813;DHT22;34221;45.296;9.516;2023-07-08T00:34:26;24.50;80.30
47813;DHT22;34221;45.296;9.516;2023-07-08T00:34:41;24.50;80.50
47813;DHT22;34221;45.296;9.516;2023-07-08T00:34:56;24.50;80.50
47813;DHT22;34221;45.296;9.516;2023-07-08T00:35:11;24.30;80.20
47813;DHT22;34221;45.296;9.516;2023-07-08T00:35:34;24.50;80.50
47813;DHT22;34221;45.296;9.516;2023-07-08T00:35:49;24.50;80.50
47813;DHT22;34221;45.296;9.516;2023-07-08T00:36:10;24.50;80.60
47813;DHT22;34221;45.296;9.516;2023-07-08T00:36:27;24.50;80.50
47813;DHT22;34221;45.296;9.516;2023-07-08T00:36:42;24.50;80.20
47813;DHT22;34221;45.296;9.516;2023-07-08T00:36:56;24.50;80.40
47813;DHT22;34221;45.296;9.516;2023-07-08T00:37:12;24.50;80.60
47813;DHT22;34221;45.296;9.516;2023-07-08T00:37:27;24.40;80.50
47813;DHT22;34221;45.296;9.516;2023-07-08T00:37:44;24.40;80.50
47813;DHT22;34221;45.296;9.516;2023-07-08T00:38:23;24.50;80.40
47813;DHT22;34221;45.296;9.516;2023-07-08T00:38:41;24.50;80.90
47813;DHT22;34221;45.296;9.516;2023-07-08T00:38:59;24.50;80.30
47813;DHT22;34221;45.296;9.516;2023-07-08T00:39:14;24.40;80.20
47813;DHT22;34221;45.296;9.516;2023-07-08T00:39:30;24.50;80.00
47813;DHT22;34221;45.296;9.516;2023-07-08T00:39:44;24.50;79.80
47813;DHT22;34221;45.296;9.516;2023-07-08T00:40:00;24.40;79.60
47813;DHT22;34221;45.296;9.516;2023-07-08T00:40:17;24.50;79.60
47813;DHT22;34221;45.296;9.516;2023-07-08T00:40:33;24.50;79.80
47813;DHT22;34221;45.296;9.516;2023-07-08T00:41:47;24.50;79.80
47813;DHT22;34221;45.296;9.516;2023-07-08T00:42:13;24.50;79.80
47813;DHT22;34221;45.296;9.516;2023-07-08T00:42:29;24.50;80.50
47813;DHT22;34221;45.296;9.516;2023-07-08T00:42:44;24.40;80.40
47813;DHT22;34221;45.296;9.516;2023-07-08T00:43:02;24.50;80.10
47813;DHT22;34221;45.296;9.516;2023-07-08T00:43:23;24.50;80.30
47813;DHT22;34221;45.296;9.516;2023-07-08T00:44:02;24.40;80.20
47813;DHT22;34221;45.296;9.516;2023-07-08T00:44:17;24.50;79.80
47813;DHT22;34221;45.296;9.516;2023-07-08T00:44:32;24.50;79.80
47813;DHT22;34221;45.296;9.516;2023-07-08T00:44:48;24.40;79.60
47813;DHT22;34221;45.296;9.516;2023-07-08T00:45:18;24.30;79.40
47813;DHT22;34221;45.296;9.516;2023-07-08T00:45:40;24.50;79.90
47813;DHT22;34221;45.296;9.516;2023-07-08T00:47:14;24.50;79.80
47813;DHT22;34221;45.296;9.516;2023-07-08T00:47:29;24.50;80.20
47813;DHT22;34221;45.296;9.516;2023-07-08T00:47:44;24.50;80.30
47813;DHT22;34221;45.296;9.516;2023-07-08T00:48:25;24.50;80.20
47813;DHT22;34221;45.296;9.516;2023-07-08T00:48:39;24.50;80.00
47813;DHT22;34221;45.296;9.516;2023-07-08T00:49:40;24.50;79.80
47813;DHT22;34221;45.296;9.516;2023-07-08T00:49:59;24.50;79.60
47813;DHT22;34221;45.296;9.516;2023-07-08T00:50:16;24.50;79.80
47813;DHT22;34221;45.296;9.516;2023-07-08T00:50:31;24.50;80.00
47813;DHT22;34221;45.296;9.516;2023-07-08T00:50:46;24.50;79.80
47813;DHT22;34221;45.296;9.516;2023-07-08T00:51:01;24.50;79.40
47813;DHT22;34221;45.296;9.516;2023-07-08T00:51:18;24.50;80.00
47813;DHT22;34221;45.296;9.516;2023-07-08T00:51:35;24.50;79.90
47813;DHT22;34221;45.296;9.516;2023-07-08T00:51:52;24.50;80.00
47813;DHT22;34221;45.296;9.516;2023-07-08T00:52:24;24.50;80.20
47813;DHT22;34221;45.296;9.516;2023-07-08T00:52:40;24.40;80.20
47813;DHT22;34221;45.296;9.516;2023-07-08T00:53:34;24.40;80.40
47813;DHT22;34221;45.296;9.516;2023-07-08T00:53:49;24.40;80.50
47813;DHT22;34221;45.296;9.516;2023-07-08T00:54:10;24.40;80.40
47813;DHT22;34221;45.296;9.516;2023-07-08T00:54:25;24.40;80.30
47813;DHT22;34221;45.296;9.516;2023-07-08T00:54:40;24.50;80.30
47813;DHT22;34221;45.296;9.516;2023-07-08T00:54:58;24.40;80.10
47813;DHT22;34221;45.296;9.516;2023-07-08T00:55:14;24.40;80.50
47813;DHT22;34221;45.296;9.516;2023-07-08T00:55:30;24.40;80.50
47813;DHT22;34221;45.296;9.516;2023-07-08T00:55:44;24.40;80.70
47813;DHT22;34221;45.296;9.516;2023-07-08T00:56:06;24.40;80.60
47813;DHT22;34221;45.296;9.516;2023-07-08T00:56:56;24.40;80.60
47813;DHT22;34221;45.296;9.516;2023-07-08T00:57:12;24.30;80.50
47813;DHT22;34221;45.296;9.516;2023-07-08T00:57:37;24.40;80.40
47813;DHT22;34221;45.296;9.516;2023-07-08T00:57:53;24.40;80.80
47813;DHT22;34221;45.296;9.516;2023-07-08T00:58:07;24.40;80.90
47813;DHT22;34221;45.296;9.516;2023-07-08T00:58:23;24.30;80.80
47813;DHT22;34221;45.296;9.516;2023-07-08T00:58:47;24.30;80.80
47813;DHT22;34221;45.296;9.516;2023-07-08T00:59:11;24.20;81.00
47813;DHT22;34221;45.296;9.516;2023-07-08T00:59:35;24.40;81.00
47813;DHT22;34221;45.296;9.516;2023-07-08T01:00:16;24.40;81.20
47813;DHT22;34221;45.296;9.516;2023-07-08T01:00:31;24.40;81.00
47813;DHT22;34221;45.296;9.516;2023-07-08T01:00:46;24.40;80.90
47813;DHT22;34221;45.296;9.516;2023-07-08T01:01:03;24.40;80.90
47813;DHT22;34221;45.296;9.516;2023-07-08T01:01:19;24.40;80.70
47813;DHT22;34221;45.296;9.516;2023-07-08T01:01:36;24.40;80.90
47813;DHT22;34221;45.296;9.516;2023-07-08T01:01:53;24.30;80.70
47813;DHT22;34221;45.296;9.516;2023-07-08T01:02:11;24.30;80.80
47813;DHT22;34221;45.296;9.516;2023-07-08T01:02:28;24.30;80.80
47813;DHT22;34221;45.296;9.516;2023-07-08T01:02:55;24.40;80.60
47813;DHT22;34221;45.296;9.516;2023-07-08T01:03:12;24.40;80.80
47813;DHT22;34221;45.296;9.516;2023-07-08T01:03:27;24.40;80.80
47813;DHT22;34221;45.296;9.516;2023-07-08T01:03:54;24.30;80.70
47813;DHT22;34221;45.296;9.516;2023-07-08T01:04:20;24.40;80.90
47813;DHT22;34221;45.296;9.516;2023-07-08T01:04:47;24.30;80.50
47813;DHT22;34221;45.296;9.516;2023-07-08T01:05:13;24.30;80.70
47813;DHT22;34221;45.296;9.516;2023-07-08T01:05:29;24.30;81.00
47813;DHT22;34221;45.296;9.516;2023-07-08T01:05:45;24.30;80.70
47813;DHT22;34221;45.296;9.516;2023-07-08T01:06:01;24.20;80.50
47813;DHT22;34221;45.296;9.516;2023-07-08T01:06:20;24.30;80.70
47813;DHT22;34221;45.296;9.516;2023-07-08T01:06:39;24.20;80.50
47813;DHT22;34221;45.296;9.516;2023-07-08T01:06:57;24.30;80.50
47813;DHT22;34221;45.296;9.516;2023-07-08T01:07:12;24.30;80.20
47813;DHT22;34221;45.296;9.516;2023-07-08T01:07:27;24.30;80.50
47813;DHT22;34221;45.296;9.516;2023-07-08T01:07:46;24.30;80.50
47813;DHT22;34221;45.296;9.516;2023-07-08T01:08:05;24.30;80.80
47813;DHT22;34221;45.296;9.516;2023-07-08T01:08:20;24.30;80.80
47813;DHT22;34221;45.296;9.516;2023-07-08T01:08:43;24.30;80.60
47813;DHT22;34221;45.296;9.516;2023-07-08T01:09:02;24.20;80.60
47813;DHT22;34221;45.296;9.516;2023-07-08T01:09:17;24.30;80.70
47813;DHT22;34221;45.296;9.516;2023-07-08T01:09:38;24.30;80.60
47813;DHT22;34221;45.296;9.516;2023-07-08T01:10:06;24.30;80.50
47813;DHT22;34221;45.296;9.516;2023-07-08T01:10:27;24.20;80.20
47813;DHT22;34221;45.296;9.516;2023-07-08T01:10:53;24.20;80.70
47813;DHT22;34221;45.296;9.516;2023-07-08T01:11:09;24.20;80.50
47813;DHT22;34221;45.296;9.516;2023-07-08T01:11:24;24.20;80.50
47813;DHT22;34221;45.296;9.516;2023-07-08T01:11:40;24.20;80.60
47813;DHT22;34221;45.296;9.516;2023-07-08T01:11:58;24.20;80.40
47813;DHT22;34221;45.296;9.516;2023-07-08T01:12:25;24.20;80.70
47813;DHT22;34221;45.296;9.516;2023-07-08T01:12:45;24.20;80.70
47813;DHT22;34221;45.296;9.516;2023-07-08T01:13:03;24.20;80.80
47813;DHT22;34221;45.296;9.516;2023-07-08T01:13:19;24.20;80.50
47813;DHT22;34221;45.296;9.516;2023-07-08T01:13:39;24.20;80.60
47813;DHT22;34221;45.296;9.516;2023-07-08T01:13:56;24.20;80.70
47813;DHT22;34221;45.296;9.516;2023-07-08T01:14:14;24.20;80.50
47813;DHT22;34221;45.296;9.516;2023-07-08T01:14:32;24.10;80.70
47813;DHT22;34221;45.296;9.516;2023-07-08T01:14:48;24.20;80.70
47813;DHT22;34221;45.296;9.516;2023-07-08T01:15:09;24.10;80.50
47813;DHT22;34221;45.296;9.516;2023-07-08T01:15:30;24.20;80.10
47813;DHT22;34221;45.296;9.516;2023-07-08T01:15:47;24.10;80.60
47813;DHT22;34221;45.296;9.516;2023-07-08T01:16:04;24.20;80.80
47813;DHT22;34221;45.296;9.516;2023-07-08T01:16:19;24.20;80.60
47813;DHT22;34221;45.296;9.516;2023-07-08T01:16:34;24.00;80.60
47813;DHT22;34221;45.296;9.516;2023-07-08T01:16:51;24.20;80.50
47813;DHT22;34221;45.296;9.516;2023-07-08T01:17:06;24.10;80.40
47813;DHT22;34221;45.296;9.516;2023-07-08T01:17:22;24.20;80.50
47813;DHT22;34221;45.296;9.516;2023-07-08T01:17:37;24.10;80.40
47813;DHT22;34221;45.296;9.516;2023-07-08T01:17:52;24.20;81.10
47813;DHT22;34221;45.296;9.516;2023-07-08T01:18:09;24.10;80.30
47813;DHT22;34221;45.296;9.516;2023-07-08T01:18:26;24.20;80.50
47813;DHT22;34221;45.296;9.516;2023-07-08T01:18:42;24.20;80.50
47813;DHT22;34221;45.296;9.516;2023-07-08T01:18:58;24.20;80.50
47813;DHT22;34221;45.296;9.516;2023-07-08T01:19:17;24.20;80.50
47813;DHT22;34221;45.296;9.516;2023-07-08T01:19:33;24.10;80.40
47813;DHT22;34221;45.296;9.516;2023-07-08T01:19:48;24.20;80.30
47813;DHT22;34221;45.296;9.516;2023-07-08T01:20:05;24.20;80.40
47813;DHT22;34221;45.296;9.516;2023-07-08T01:20:20;24.20;80.40
47813;DHT22;34221;45.296;9.516;2023-07-08T01:20:35;24.20;80.70
47813;DHT22;34221;45.296;9.516;2023-07-08T01:20:50;24.20;80.60
47813;DHT22;34221;45.296;9.516;2023-07-08T01:21:29;24.20;80.50
47813;DHT22;34221;45.296;9.516;2023-07-08T01:22:15;24.20;80.50
47813;DHT22;34221;45.296;9.516;2023-07-08T01:22:30;24.20;80.30
47813;DHT22;34221;45.296;9.516;2023-07-08T01:22:46;24.20;80.60
47813;DHT22;34221;45.296;9.516;2023-07-08T01:23:01;24.20;80.60
47813;DHT22;34221;45.296;9.516;2023-07-08T01:23:17;24.20;80.70
47813;DHT22;34221;45.296;9.516;2023-07-08T01:23:35;24.10;80.60
47813;DHT22;34221;45.296;9.516;2023-07-08T01:23:50;24.20;80.50
47813;DHT22;34221;45.296;9.516;2023-07-08T01:24:09;24.20;80.60
47813;DHT22;34221;45.296;9.516;2023-07-08T01:24:25;24.10;80.70
47813;DHT22;34221;45.296;9.516;2023-07-08T01:24:43;24.10;80.40
47813;DHT22;34221;45.296;9.516;2023-07-08T01:24:59;24.20;80.50
47813;DHT22;34221;45.296;9.516;2023-07-08T01:25:19;24.10;80.40
47813;DHT22;34221;45.296;9.516;2023-07-08T01:25:34;24.10;80.60
47813;DHT22;34221;45.296;9.516;2023-07-08T01:25:49;24.00;80.60
47813;DHT22;34221;45.296;9.516;2023-07-08T01:26:04;24.20;80.70
47813;DHT22;34221;45.296;9.516;2023-07-08T01:26:22;24.10;80.50
47813;DHT22;34221;45.296;9.516;2023-07-08T01:26:40;24.00;80.50
47813;DHT22;34221;45.296;9.516;2023-07-08T01:26:56;24.10;80.40
47813;DHT22;34221;45.296;9.516;2023-07-08T01:27:14;24.20;80.60
47813;DHT22;34221;45.296;9.516;2023-07-08T01:27:32;24.00;80.20
47813;DHT22;34221;45.296;9.516;2023-07-08T01:27:54;24.00;80.40
47813;DHT22;34221;45.296;9.516;2023-07-08T01:28:10;24.10;80.40
47813;DHT22;34221;45.296;9.516;2023-07-08T01:28:25;24.10;80.60
47813;DHT22;34221;45.296;9.516;2023-07-08T01:28:40;24.00;80.70
47813;DHT22;34221;45.296;9.516;2023-07-08T01:28:56;24.00;80.50
47813;DHT22;34221;45.296;9.516;2023-07-08T01:29:11;24.10;80.60
47813;DHT22;34221;45.296;9.516;2023-07-08T01:29:26;24.10;80.60
47813;DHT22;34221;45.296;9.516;2023-07-08T01:29:42;24.10;80.50
47813;DHT22;34221;45.296;9.516;2023-07-08T01:29:57;24.10;80.40
47813;DHT22;34221;45.296;9.516;2023-07-08T01:30:13;24.10;80.40
47813;DHT22;34221;45.296;9.516;2023-07-08T01:30:29;24.10;81.00
47813;DHT22;34221;45.296;9.516;2023-07-08T01:30:45;24.10;80.60
47813;DHT22;34221;45.296;9.516;2023-07-08T01:31:00;24.10;80.60
47813;DHT22;34221;45.296;9.516;2023-07-08T01:31:15;24.10;80.40
47813;DHT22;34221;45.296;9.516;2023-07-08T01:31:30;24.10;80.60
47813;DHT22;34221;45.296;9.516;2023-07-08T01:31:46;24.10;80.70
47813;DHT22;34221;45.296;9.516;2023-07-08T01:32:03;24.10;80.30
47813;DHT22;34221;45.296;9.516;2023-07-08T01:32:19;24.20;80.30
47813;DHT22;34221;45.296;9.516;2023-07-08T01:32:37;24.10;80.50
47813;DHT22;34221;45.296;9.516;2023-07-08T01:32:59;24.10;80.50
47813;DHT22;34221;45.296;9.516;2023-07-08T01:33:18;24.20;80.50
47813;DHT22;34221;45.296;9.516;2023-07-08T01:33:33;24.10;80.90
47813;DHT22;34221;45.296;9.516;2023-07-08T01:33:49;24.00;80.90
47813;DHT22;34221;45.296;9.516;2023-07-08T01:34:07;24.10;81.40
47813;DHT22;34221;45.296;9.516;2023-07-08T01:34:22;24.10;81.20
47813;DHT22;34221;45.296;9.516;2023-07-08T01:34:37;24.10;81.40
47813;DHT22;34221;45.296;9.516;2023-07-08T01:34:55;24.10;81.20
47813;DHT22;34221;45.296;9.516;2023-07-08T01:35:14;24.20;81.50
47813;DHT22;34221;45.296;9.516;2023-07-08T01:35:29;24.10;81.50
47813;DHT22;34221;45.296;9.516;2023-07-08T01:35:46;24.10;81.60
47813;DHT22;34221;45.296;9.516;2023-07-08T01:36:02;24.20;81.70
47813;DHT22;34221;45.296;9.516;2023-07-08T01:36:17;24.20;81.60
47813;DHT22;34221;45.296;9.516;2023-07-08T01:36:38;24.10;81.70
47813;DHT22;34221;45.296;9.516;2023-07-08T01:36:56;24.20;81.80
47813;DHT22;34221;45.296;9.516;2023-07-08T01:37:12;24.20;81.80
47813;DHT22;34221;45.296;9.516;2023-07-08T01:37:37;24.20;81.70
47813;DHT22;34221;45.296;9.516;2023-07-08T01:37:56;24.20;81.80
47813;DHT22;34221;45.296;9.516;2023-07-08T01:38:14;24.10;81.90
47813;DHT22;34221;45.296;9.516;2023-07-08T01:38:30;24.20;82.20
47813;DHT22;34221;45.296;9.516;2023-07-08T01:38:45;24.20;82.20
47813;DHT22;34221;45.296;9.516;2023-07-08T01:39:00;24.00;82.20
47813;DHT22;34221;45.296;9.516;2023-07-08T01:39:18;24.20;82.30
47813;DHT22;34221;45.296;9.516;2023-07-08T01:39:34;24.10;82.50
47813;DHT22;34221;45.296;9.516;2023-07-08T01:39:48;24.00;82.40
47813;DHT22;34221;45.296;9.516;2023-07-08T01:40:16;24.00;82.50
47813;DHT22;34221;45.296;9.516;2023-07-08T01:40:33;24.00;82.60
47813;DHT22;34221;45.296;9.516;2023-07-08T01:40:51;24.20;82.90
47813;DHT22;34221;45.296;9.516;2023-07-08T01:41:11;24.10;82.80
47813;DHT22;34221;45.296;9.516;2023-07-08T01:41:26;24.10;83.30
47813;DHT22;34221;45.296;9.516;2023-07-08T01:41:41;24.10;83.20
47813;DHT22;34221;45.296;9.516;2023-07-08T01:41:56;24.20;83.20
47813;DHT22;34221;45.296;9.516;2023-07-08T01:42:12;24.10;83.30
47813;DHT22;34221;45.296;9.516;2023-07-08T01:42:26;24.10;83.40
47813;DHT22;34221;45.296;9.516;2023-07-08T01:42:41;24.00;83.70
47813;DHT22;34221;45.296;9.516;2023-07-08T01:42:57;24.10;83.80
47813;DHT22;34221;45.296;9.516;2023-07-08T01:43:12;24.00;83.90
47813;DHT22;34221;45.296;9.516;2023-07-08T01:43:26;24.10;84.10
47813;DHT22;34221;45.296;9.516;2023-07-08T01:43:41;24.00;84.00
47813;DHT22;34221;45.296;9.516;2023-07-08T01:43:56;24.10;84.00
47813;DHT22;34221;45.296;9.516;2023-07-08T01:44:33;24.10;84.00
47813;DHT22;34221;45.296;9.516;2023-07-08T01:44:49;24.10;83.90
47813;DHT22;34221;45.296;9.516;2023-07-08T01:45:14;24.10;84.30
47813;DHT22;34221;45.296;9.516;2023-07-08T01:45:36;24.10;84.00
47813;DHT22;34221;45.296;9.516;2023-07-08T01:46:20;24.10;84.00
47813;DHT22;34221;45.296;9.516;2023-07-08T01:46:36;23.90;84.10
47813;DHT22;34221;45.296;9.516;2023-07-08T01:46:52;24.10;84.50
47813;DHT22;34221;45.296;9.516;2023-07-08T01:47:19;24.10;84.80
47813;DHT22;34221;45.296;9.516;2023-07-08T01:47:35;24.10;84.20
47813;DHT22;34221;45.296;9.516;2023-07-08T01:48:10;24.10;84.10
47813;DHT22;34221;45.296;9.516;2023-07-08T01:48:26;24.10;84.40
47813;DHT22;34221;45.296;9.516;2023-07-08T01:48:50;24.10;84.30
47813;DHT22;34221;45.296;9.516;2023-07-08T01:49:05;24.10;83.80
47813;DHT22;34221;45.296;9.516;2023-07-08T01:49:20;24.10;83.80
47813;DHT22;34221;45.296;9.516;2023-07-08T01:49:37;24.10;84.00
47813;DHT22;34221;45.296;9.516;2023-07-08T01:49:53;24.00;84.10
47813;DHT22;34221;45.296;9.516;2023-07-08T01:50:09;24.10;84.10
47813;DHT22;34221;45.296;9.516;2023-07-08T01:50:26;24.10;84.20
47813;DHT22;34221;45.296;9.516;2023-07-08T01:51:00;24.10;84.20
47813;DHT22;34221;45.296;9.516;2023-07-08T01:51:16;24.00;84.20
47813;DHT22;34221;45.296;9.516;2023-07-08T01:51:31;24.10;84.30
47813;DHT22;34221;45.296;9.516;2023-07-08T01:51:47;24.10;84.20
47813;DHT22;34221;45.296;9.516;2023-07-08T01:52:02;24.00;84.00
47813;DHT22;34221;45.296;9.516;2023-07-08T01:52:17;24.00;83.90
47813;DHT22;34221;45.296;9.516;2023-07-08T01:52:32;24.00;84.10
47813;DHT22;34221;45.296;9.516;2023-07-08T01:52:48;24.00;84.50
47813;DHT22;34221;45.296;9.516;2023-07-08T01:53:11;24.00;84.30
47813;DHT22;34221;45.296;9.516;2023-07-08T01:53:34;23.90;84.20
47813;DHT22;34221;45.296;9.516;2023-07-08T01:53:50;24.00;84.40
47813;DHT22;34221;45.296;9.516;2023-07-08T01:54:05;24.00;84.30
47813;DHT22;34221;45.296;9.516;2023-07-08T01:54:20;24.00;84.40
47813;DHT22;34221;45.296;9.516;2023-07-08T01:54:35;24.00;84.30
47813;DHT22;34221;45.296;9.516;2023-07-08T01:54:55;23.70;84.10
47813;DHT22;34221;45.296;9.516;2023-07-08T01:55:09;23.90;84.30
47813;DHT22;34221;45.296;9.516;2023-07-08T01:55:24;24.00;84.50
47813;DHT22;34221;45.296;9.516;2023-07-08T01:55:40;23.80;84.10
47813;DHT22;34221;45.296;9.516;2023-07-08T01:55:54;23.90;84.10